createdAt,value
2024-03-16T00:01:05.322Z,71.59
2024-03-16T00:03:33.325Z,72.08
2024-03-16T00:06:00.266Z,72.39
2024-03-16T00:08:27.161Z,72.17
2024-03-16T00:10:54.168Z,72.92
2024-03-16T00:13:20.952Z,72.30
2024-03-16T00:15:53.418Z,72.61
2024-03-16T00:18:20.215Z,72.44
2024-03-16T00:20:46.967Z,72.15
2024-03-16T00:23:13.940Z,72.84
2024-03-16T00:25:41.703Z,71.92
2024-03-16T00:28:09.138Z,72.84
2024-03-16T00:30:36.062Z,72.00
2024-03-16T00:33:03.432Z,73.27
2024-03-16T00:35:33.251Z,74.29
2024-03-16T00:38:00.062Z,73.57
2024-03-16T00:40:26.844Z,74.18
2024-03-16T00:42:53.672Z,73.80
2024-03-16T00:45:20.438Z,75.01
2024-03-16T00:47:47.411Z,74.58
2024-03-16T00:50:16.108Z,75.05
2024-03-16T00:52:43.020Z,74.99
2024-03-16T00:55:10.995Z,74.64
2024-03-16T00:57:38.045Z,75.47
2024-03-16T01:00:05.143Z,75.53
2024-03-16T01:02:32.758Z,75.36
2024-03-16T01:04:59.562Z,74.93
2024-03-16T01:07:29.324Z,75.57
2024-03-16T01:09:57.060Z,75.45
2024-03-16T01:12:23.929Z,75.61
2024-03-16T01:14:50.721Z,75.14
2024-03-16T01:17:17.613Z,74.99
2024-03-16T01:19:45.474Z,75.66
2024-03-16T01:22:12.567Z,75.65
2024-03-16T01:24:39.373Z,75.79
2024-03-16T01:27:06.707Z,75.22
2024-03-16T01:29:34.233Z,75.82
2024-03-16T01:32:09.211Z,75.76
2024-03-16T01:34:36.804Z,75.47
2024-03-16T01:37:03.906Z,75.95
2024-03-16T01:39:31.387Z,76.33
2024-03-16T01:42:09.901Z,76.19
2024-03-16T01:44:36.655Z,75.92
2024-03-16T01:47:04.823Z,75.83
2024-03-16T01:49:31.571Z,76.34
2024-03-16T01:52:01.494Z,76.35
2024-03-16T01:54:28.472Z,75.82
2024-03-16T01:56:55.340Z,76.88
2024-03-16T01:59:22.212Z,76.39
2024-03-16T02:01:49.410Z,75.84
2024-03-16T02:04:16.345Z,75.62
2024-03-16T02:06:50.434Z,76.14
2024-03-16T02:09:17.366Z,76.19
2024-03-16T02:11:44.123Z,76.01
2024-03-16T02:14:11.018Z,76.71
2024-03-16T02:16:37.909Z,76.06
2024-03-16T02:19:04.820Z,76.09
2024-03-16T02:21:31.627Z,75.86
2024-03-16T02:23:58.987Z,75.84
2024-03-16T02:26:26.174Z,75.52
2024-03-16T02:28:53.266Z,76.28
2024-03-16T02:31:20.026Z,76.20
2024-03-16T02:33:46.816Z,77.06
2024-03-16T02:36:14.671Z,76.78
2024-03-16T02:38:41.904Z,76.56
2024-03-16T02:41:08.960Z,76.14
2024-03-16T02:43:35.815Z,76.59
2024-03-16T02:46:02.603Z,76.63
2024-03-16T02:48:29.410Z,77.13
2024-03-16T02:50:56.272Z,77.37
2024-03-16T02:53:24.161Z,77.34
2024-03-16T02:55:50.956Z,77.03
2024-03-16T02:58:17.887Z,77.17
2024-03-16T03:00:45.634Z,77.18
2024-03-16T03:03:13.452Z,77.21
2024-03-16T03:05:40.880Z,77.11
2024-03-16T03:08:07.683Z,77.13
2024-03-16T03:10:34.448Z,77.26
2024-03-16T03:13:02.906Z,77.80
2024-03-16T03:15:29.882Z,77.65
2024-03-16T03:17:56.703Z,77.62
2024-03-16T03:20:25.259Z,77.31
2024-03-16T03:22:52.143Z,76.87
2024-03-16T03:25:20.466Z,77.55
2024-03-16T03:27:47.542Z,77.56
2024-03-16T03:30:14.454Z,78.19
2024-03-16T03:32:41.570Z,78.74
2024-03-16T03:35:08.550Z,78.57
2024-03-16T03:37:35.623Z,78.19
2024-03-16T03:40:02.577Z,78.13
2024-03-16T03:42:31.099Z,77.89
2024-03-16T03:45:15.782Z,77.95
2024-03-16T03:48:02.018Z,78.31
2024-03-16T03:50:30.642Z,78.71
2024-03-16T03:53:00.879Z,79.29
2024-03-16T03:55:27.858Z,78.75
2024-03-16T03:57:55.904Z,78.83
2024-03-16T04:00:26.759Z,78.67
2024-03-16T04:02:53.567Z,78.49
2024-03-16T04:05:20.427Z,78.75
2024-03-16T04:07:47.468Z,78.74
2024-03-16T04:10:14.247Z,78.80
2024-03-16T04:12:41.212Z,77.98
2024-03-16T04:15:08.150Z,78.42
2024-03-16T04:17:34.928Z,78.69
2024-03-16T04:20:02.005Z,79.21
2024-03-16T04:22:28.725Z,79.42
2024-03-16T04:24:55.653Z,79.20
2024-03-16T04:27:22.524Z,80.08
2024-03-16T04:29:49.258Z,79.44
2024-03-16T04:32:16.005Z,80.11
2024-03-16T04:34:42.824Z,80.52
2024-03-16T04:37:10.222Z,80.67
2024-03-16T04:39:37.200Z,80.90
2024-03-16T04:42:04.097Z,81.30
2024-03-16T04:44:30.842Z,80.56
2024-03-16T04:46:58.237Z,80.81
2024-03-16T04:49:25.046Z,81.48
2024-03-16T04:51:51.998Z,81.17
2024-03-16T04:54:18.867Z,81.35
2024-03-16T04:56:45.601Z,81.04
2024-03-16T04:59:12.825Z,81.89
2024-03-16T05:01:39.785Z,82.01
2024-03-16T05:04:06.892Z,82.45
2024-03-16T05:06:35.319Z,82.80
2024-03-16T05:09:09.334Z,83.03
2024-03-16T05:11:37.554Z,83.14
2024-03-16T05:14:07.694Z,82.88
2024-03-16T05:16:35.214Z,83.00
2024-03-16T05:19:04.141Z,83.45
2024-03-16T05:21:34.541Z,83.14
2024-03-16T05:24:03.029Z,82.76
2024-03-16T05:26:32.571Z,82.77
2024-03-16T05:28:59.476Z,83.20
2024-03-16T05:31:27.428Z,83.19
2024-03-16T05:33:54.533Z,83.13
2024-03-16T05:36:24.767Z,83.03
2024-03-16T05:38:51.674Z,82.75
2024-03-16T05:41:18.567Z,82.79
2024-03-16T05:43:45.796Z,82.72
2024-03-16T05:46:13.109Z,82.90
2024-03-16T05:48:40.135Z,82.94
2024-03-16T05:51:07.165Z,82.82
2024-03-16T05:53:33.965Z,83.19
2024-03-16T05:56:00.745Z,82.96
2024-03-16T05:58:27.610Z,82.99
2024-03-16T06:00:55.402Z,83.29
2024-03-16T06:03:22.287Z,82.69
2024-03-16T06:05:49.081Z,82.95
2024-03-16T06:08:15.811Z,82.63
2024-03-16T06:10:43.186Z,82.62
2024-03-16T06:13:12.272Z,82.96
2024-03-16T06:15:40.898Z,81.95
2024-03-16T06:18:07.968Z,82.30
2024-03-16T06:20:35.040Z,82.76
2024-03-16T06:23:02.068Z,82.56
2024-03-16T06:25:30.924Z,82.14
2024-03-16T06:28:07.982Z,83.04
2024-03-16T06:30:37.316Z,83.56
2024-03-16T06:33:07.676Z,83.47
2024-03-16T06:35:34.849Z,82.65
2024-03-16T06:38:01.699Z,82.78
2024-03-16T06:40:31.583Z,82.49
2024-03-16T06:42:58.471Z,82.51
2024-03-16T06:45:25.227Z,82.45
2024-03-16T06:47:52.193Z,81.33
2024-03-16T06:50:19.126Z,81.29
2024-03-16T06:52:46.820Z,81.47
2024-03-16T06:55:14.822Z,81.80
2024-03-16T06:57:41.686Z,80.55
2024-03-16T07:00:10.662Z,81.13
2024-03-16T07:02:37.434Z,81.78
2024-03-16T07:05:04.411Z,81.30
2024-03-16T07:07:31.821Z,80.76
2024-03-16T07:09:59.465Z,80.36
2024-03-16T07:12:26.309Z,80.45
2024-03-16T07:14:53.221Z,80.43
2024-03-16T07:17:20.194Z,79.84
2024-03-16T07:19:47.212Z,79.67
2024-03-16T07:22:14.491Z,80.44
2024-03-16T07:24:41.388Z,80.56
2024-03-16T07:27:08.804Z,80.58
2024-03-16T07:29:35.636Z,80.36
2024-03-16T07:32:02.442Z,80.81
2024-03-16T07:34:29.668Z,80.56
2024-03-16T07:36:58.684Z,80.58
2024-03-16T07:39:25.672Z,79.94
2024-03-16T07:41:54.765Z,79.17
2024-03-16T07:44:21.746Z,79.14
2024-03-16T07:46:49.727Z,78.56
2024-03-16T07:49:16.595Z,78.27
2024-03-16T07:51:45.450Z,78.63
2024-03-16T07:54:16.737Z,78.86
2024-03-16T07:56:43.495Z,78.77
2024-03-16T07:59:11.209Z,79.43
2024-03-16T08:01:38.314Z,79.77
2024-03-16T08:04:05.914Z,79.45
2024-03-16T08:06:32.928Z,78.47
2024-03-16T08:09:00.027Z,77.48
2024-03-16T08:11:29.340Z,77.90
2024-03-16T08:13:56.200Z,78.15
2024-03-16T08:16:23.139Z,77.90
2024-03-16T08:18:50.536Z,78.31
2024-03-16T08:21:17.660Z,77.33
2024-03-16T08:23:45.409Z,76.70
2024-03-16T08:26:13.913Z,76.90
2024-03-16T08:28:40.763Z,76.96
2024-03-16T08:31:07.714Z,76.66
2024-03-16T08:33:34.682Z,76.76
2024-03-16T08:36:01.549Z,77.24
2024-03-16T08:38:28.555Z,76.64
2024-03-16T08:40:56.932Z,76.42
2024-03-16T08:43:23.978Z,76.18
2024-03-16T08:45:50.966Z,76.38
2024-03-16T08:48:17.899Z,76.30
2024-03-16T08:50:46.014Z,76.36
2024-03-16T08:53:12.790Z,77.41
2024-03-16T08:55:39.679Z,77.50
2024-03-16T08:58:08.731Z,77.13
2024-03-16T09:00:35.603Z,77.35
2024-03-16T09:03:02.466Z,76.90
2024-03-16T09:05:29.463Z,75.08
2024-03-16T09:07:56.220Z,73.38
2024-03-16T09:10:36.711Z,72.91
2024-03-16T09:13:03.500Z,73.79
2024-03-16T09:15:30.411Z,74.04
2024-03-16T09:17:57.218Z,73.83
2024-03-16T09:20:24.030Z,75.03
2024-03-16T09:22:53.556Z,74.80
2024-03-16T09:25:22.081Z,74.37
2024-03-16T09:27:49.114Z,75.43
2024-03-16T09:30:21.841Z,75.82
2024-03-16T09:32:48.600Z,75.24
2024-03-16T09:35:15.652Z,75.08
2024-03-16T09:37:42.490Z,74.06
2024-03-16T09:40:15.441Z,73.04
2024-03-16T09:42:42.624Z,72.20
